Time;durP1;ratioP1;P1;durP2;ratioP2;P2;SDS_P1;SDS_P2;PMS_P1;PMS_P2;Temp;Humidity;BMP_temperature;BMP_pressure;BME280_temperature;BME280_humidity;BME280_pressure;Samples;Min_cycle;Max_cycle;Signal;HPM_P1;HPM_P2
2021/11/10 00:00:21;;;;;;;;;;;;;;;6.29;95.55;100754.20;1639433;86;21262;-66
2021/11/10 00:02:50;;;;;;;25.85;16.25;;;;;;;6.27;95.43;100752.06;1679426;83;20182;-66
2021/11/10 00:05:17;;;;;;;21.52;15.63;;;;;;;6.26;95.50;100752.51;1658502;85;21007;-66
2021/11/10 00:07:44;;;;;;;23.30;15.32;;;;;;;6.24;95.45;100745.17;1664386;85;21101;-65
2021/11/10 00:10:14;;;;;;;19.57;12.47;;;;;;;6.23;95.50;100746.06;1642196;86;21726;-66
2021/11/10 00:12:41;;;;;;;22.27;14.18;;;;;;;6.25;95.59;100743.02;1635174;87;21261;-65
2021/11/10 00:15:10;;;;;;;24.43;16.52;;;;;;;6.25;95.49;100747.36;1647605;86;21050;-66
2021/11/10 00:17:37;;;;;;;18.57;14.38;;;;;;;6.25;95.55;100747.36;1663273;84;21660;-66
2021/11/10 00:20:06;;;;;;;23.07;15.18;;;;;;;6.24;95.41;100744.33;1645850;86;21013;-65
2021/11/10 00:22:33;;;;;;;20.72;14.25;;;;;;;6.22;95.39;100737.02;1663532;85;21150;-65
2021/11/10 00:25:00;;;;;;;20.23;13.97;;;;;;;6.20;95.40;100733.59;1664368;84;21182;-66
2021/11/10 00:27:27;;;;;;;18.75;14.35;;;;;;;6.19;95.39;100731.84;1684603;84;21822;-66
2021/11/10 00:29:54;;;;;;;19.67;15.10;;;;;;;6.17;95.50;100738.37;1698344;82;20958;-65
2021/11/10 00:32:21;;;;;;;19.87;15.38;;;;;;;6.17;95.44;100731.04;1699317;82;20993;-65
2021/11/10 00:34:47;;;;;;;20.30;14.53;;;;;;;6.15;95.47;100731.48;1680710;84;21642;-66
2021/11/10 00:37:14;;;;;;;20.92;14.00;;;;;;;6.15;95.50;100741.86;1700678;83;21066;-65
2021/11/10 00:39:41;;;;;;;18.98;14.30;;;;;;;6.14;95.46;100734.97;1704800;82;20967;-65
2021/11/10 00:42:08;;;;;;;23.07;16.23;;;;;;;6.15;95.50;100732.78;1705970;83;21084;-65
2021/11/10 00:44:35;;;;;;;20.97;15.45;;;;;;;6.13;95.38;100731.94;1709647;82;20996;-65
2021/11/10 00:47:03;;;;;;;21.73;14.77;;;;;;;6.11;95.46;100734.56;1709083;83;21028;-66
2021/11/10 00:49:29;;;;;;;22.87;15.40;;;;;;;6.11;95.47;100739.75;1687195;83;21514;-65
2021/11/10 00:51:56;;;;;;;21.73;15.63;;;;;;;6.09;95.41;100743.23;1708541;82;21068;-66
2021/11/10 00:54:25;;;;;;;19.95;14.80;;;;;;;6.07;95.37;100739.80;1705847;82;20981;-65
2021/11/10 00:56:53;;;;;;;22.25;15.30;;;;;;;6.03;95.42;100745.02;1698748;83;21010;-66
2021/11/10 00:59:20;;;;;;;22.10;14.78;;;;;;;6.00;95.35;100739.88;1700786;84;21881;-66
2021/11/10 01:01:47;;;;;;;21.17;14.65;;;;;;;5.98;95.34;100739.03;1703581;82;21120;-65
2021/11/10 01:04:14;;;;;;;25.67;15.60;;;;;;;5.95;95.35;100736.48;1700036;83;21018;-65
2021/11/10 01:06:41;;;;;;;23.12;15.75;;;;;;;5.92;95.23;100739.08;1701236;82;20965;-66
2021/11/10 01:09:08;;;;;;;21.25;14.83;;;;;;;5.87;95.17;100736.98;1703658;82;21078;-65
2021/11/10 01:11:34;;;;;;;;;;;;;;;5.84;95.10;100743.05;1709682;82;21022;-65
2021/11/10 01:14:01;;;;;;;23.17;14.97;;;;;;;5.79;95.07;100743.53;1707048;82;21462;-65
2021/11/10 01:16:28;;;;;;;23.90;15.93;;;;;;;5.77;95.23;100741.83;1706747;82;20997;-65
2021/11/10 01:18:55;;;;;;;21.23;15.45;;;;;;;5.73;95.20;100739.72;1702016;82;21865;-66
2021/11/10 01:21:22;;;;;;;20.37;15.48;;;;;;;5.70;95.31;100740.20;1704205;82;21065;-65
2021/11/10 01:23:49;;;;;;;20.08;15.43;;;;;;;5.64;95.19;100733.80;1707007;82;20995;-66
2021/11/10 01:26:16;;;;;;;23.95;15.55;;;;;;;5.57;95.12;100742.05;1707286;82;21125;-65
2021/11/10 01:28:44;;;;;;;22.62;17.10;;;;;;;5.49;95.04;100746.45;1701416;82;21069;-65
2021/11/10 01:31:11;;;;;;;24.18;15.88;;;;;;;5.42;95.09;100742.22;1701974;82;20988;-65
2021/11/10 01:33:39;;;;;;;23.17;16.43;;;;;;;5.37;95.08;100743.55;1692681;83;21079;-66
2021/11/10 01:36:06;;;;;;;18.92;14.90;;;;;;;5.30;95.00;100741.91;1709112;82;20936;-65
2021/11/10 01:38:32;;;;;;;23.37;16.40;;;;;;;5.21;94.92;100740.67;1704235;82;21433;-65
2021/11/10 01:42:39;;;;;;;21.12;15.88;;;;;;;5.14;94.95;100738.14;1814118;77;22622;-64
2021/11/10 01:45:08;;;;;;;23.32;16.42;;;;;;;5.03;95.04;100737.38;1802756;77;20935;-65
2021/11/10 01:47:35;;;;;;;21.45;15.63;;;;;;;4.96;94.97;100733.55;1808491;78;21238;-65
2021/11/10 01:50:03;;;;;;;21.55;16.25;;;;;;;4.88;94.93;100727.17;1811208;77;20982;-65
2021/11/10 01:52:30;;;;;;;23.00;15.45;;;;;;;4.83;94.98;100728.92;1809276;77;21050;-65
2021/11/10 01:54:56;;;;;;;25.00;16.27;;;;;;;4.76;94.96;100724.66;1806100;77;20958;-65
2021/11/10 01:57:23;;;;;;;23.27;15.70;;;;;;;4.69;94.99;100719.53;1808125;77;21134;-65
2021/11/10 02:00:23;;;;;;;25.12;16.67;;;;;;;4.65;95.00;100725.61;1772270;78;21415;-64
2021/11/10 02:02:51;;;;;;;23.38;17.05;;;;;;;4.59;95.04;100719.60;1777387;79;21533;-65
2021/11/10 02:08:07;;;;;;;21.55;16.40;;;;;;;4.50;95.13;100720.52;1747615;81;21017;-63
2021/11/10 02:10:34;;;;;;;20.77;15.95;;;;;;;4.43;95.11;100709.38;1740800;81;20934;-63
2021/11/10 02:13:01;;;;;;;;;;;;;;;4.41;95.15;100712.83;1728132;82;21973;-63
2021/11/10 02:15:27;;;;;;;28.98;18.45;;;;;;;4.37;95.20;100718.87;1729958;81;20151;-65
2021/11/10 02:17:57;;;;;;;23.83;16.17;;;;;;;4.32;95.21;100711.60;1741027;81;21024;-65
2021/11/10 02:20:29;;;;;;;28.02;16.52;;;;;;;4.26;95.23;100709.47;1749870;81;21072;-65
2021/11/10 02:22:56;;;;;;;26.00;18.27;;;;;;;4.23;95.21;100709.49;1736391;81;21086;-65
2021/11/10 02:25:23;;;;;;;23.12;18.45;;;;;;;4.18;95.22;100706.06;1753315;81;21427;-65
2021/11/10 02:27:49;;;;;;;29.23;18.62;;;;;;;4.15;95.30;100700.92;1736637;81;21016;-65
2021/11/10 02:30:22;;;;;;;26.63;19.17;;;;;;;4.14;95.31;100704.35;1754096;81;21020;-65
2021/11/10 02:32:56;;;;;;;27.42;19.52;;;;;;;4.09;95.30;100711.30;1754597;81;21671;-65
2021/11/10 02:35:27;;;;;;;29.32;20.55;;;;;;;4.06;95.31;100712.58;1748426;81;20946;-64
2021/11/10 02:37:59;;;;;;;30.27;21.05;;;;;;;4.02;95.34;100718.20;1753720;81;21064;-65
2021/11/10 02:40:27;;;;;;;30.30;21.68;;;;;;;4.00;95.40;100712.61;1749500;80;21077;-65
2021/11/10 02:42:55;;;;;;;32.03;21.45;;;;;;;3.99;95.46;100719.95;1742071;81;21151;-66
2021/11/10 02:45:26;;;;;;;27.73;20.62;;;;;;;3.96;95.41;100729.86;1720900;82;21029;-66
2021/11/10 02:47:53;;;;;;;35.10;22.98;;;;;;;3.94;95.37;100728.14;1743905;80;21037;-65
2021/11/10 02:50:19;;;;;;;30.15;20.62;;;;;;;3.90;95.36;100716.12;1747268;81;21792;-66
2021/11/10 02:52:46;;;;;;;30.57;21.07;;;;;;;3.89;95.45;100720.84;1753032;81;20962;-66
2021/11/10 02:55:13;;;;;;;31.73;21.52;;;;;;;3.87;95.48;100713.55;1751842;81;20927;-65
2021/11/10 02:57:40;;;;;;;31.87;23.30;;;;;;;3.87;95.52;100709.67;1752233;80;21009;-65
2021/11/10 03:00:11;;;;;;;31.73;21.35;;;;;;;3.86;95.54;100702.77;1752259;79;22490;-65
2021/11/10 03:02:37;;;;;;;34.35;23.75;;;;;;;3.85;95.49;100708.81;1735190;81;21111;-65
2021/11/10 03:05:06;;;;;;;32.08;21.35;;;;;;;3.81;95.46;100704.10;1727810;81;21080;-65
2021/11/10 03:07:33;;;;;;;31.65;21.10;;;;;;;3.79;95.50;100700.22;1718121;82;21154;-65
2021/11/10 03:10:01;;;;;;;28.98;22.48;;;;;;;3.77;95.50;100701.94;1718324;81;21013;-65
2021/11/10 03:12:27;;;;;;;35.78;22.67;;;;;;;3.76;95.48;100703.25;1740530;81;21588;-66
2021/11/10 03:14:54;;;;;;;34.40;23.22;;;;;;;3.72;95.45;100708.84;1708872;82;21067;-66
2021/11/10 03:17:21;;;;;;;33.77;21.77;;;;;;;3.69;95.44;100703.69;1729542;81;21666;-65
2021/11/10 03:19:47;;;;;;;32.33;22.47;;;;;;;3.68;95.47;100701.98;1739749;80;21123;-65
2021/11/10 03:22:15;;;;;;;32.93;23.85;;;;;;;3.65;95.44;100701.99;1743123;80;21702;-65
2021/11/10 03:24:43;;;;;;;31.48;21.82;;;;;;;3.63;95.47;100708.88;1742562;80;20971;-66
2021/11/10 03:27:11;;;;;;;31.15;21.95;;;;;;;3.60;95.46;100703.73;1741281;80;21326;-65
2021/11/10 03:29:39;;;;;;;27.93;20.70;;;;;;;3.59;95.55;100707.19;1724384;81;20994;-65
2021/11/10 03:32:09;;;;;;;34.58;23.40;;;;;;;3.56;95.60;100702.88;1708533;82;21046;-66
2021/11/10 03:34:37;;;;;;;34.45;24.20;;;;;;;3.56;95.74;100716.23;1742538;81;21061;-66
2021/11/10 03:37:04;;;;;;;34.15;24.05;;;;;;;3.56;95.69;100718.37;1741693;81;22776;-65
2021/11/10 03:39:31;;;;;;;38.00;24.45;;;;;;;3.54;95.68;100703.75;1747704;81;21075;-66
2021/11/10 03:41:58;;;;;;;35.05;23.77;;;;;;;3.53;95.70;100702.05;1708619;81;20924;-65
2021/11/10 03:44:25;;;;;;;34.73;22.37;;;;;;;3.53;95.76;100702.89;1742726;81;22201;-65
2021/11/10 03:46:52;;;;;;;33.30;22.67;;;;;;;3.54;95.79;100697.30;1742382;81;21056;-65
2021/11/10 03:49:20;;;;;;;34.40;24.00;;;;;;;3.52;95.82;100705.47;1718869;81;21512;-66
2021/11/10 03:51:48;;;;;;;36.48;23.95;;;;;;;3.52;95.80;100705.47;1719413;82;21087;-65
2021/11/10 03:54:15;;;;;;;33.28;22.22;;;;;;;3.51;95.84;100711.50;1723342;81;21517;-65
2021/11/10 03:56:43;;;;;;;33.35;23.75;;;;;;;3.50;95.86;100707.19;1714108;81;23562;-66
2021/11/10 03:59:09;;;;;;;35.90;23.65;;;;;;;3.51;95.93;100705.05;1725001;81;21070;-66
2021/11/10 04:01:36;;;;;;;35.83;23.92;;;;;;;3.48;95.84;100709.79;1721667;81;21017;-66
2021/11/10 04:04:04;;;;;;;34.83;26.02;;;;;;;3.46;95.85;100702.91;1737142;81;21607;-66
2021/11/10 04:06:31;;;;;;;37.98;26.48;;;;;;;3.45;95.88;100701.20;1737212;80;20989;-65
2021/11/10 04:08:58;;;;;;;37.65;24.98;;;;;;;3.43;95.83;100699.05;1749850;79;21021;-65
2021/11/10 04:11:25;;;;;;;34.85;24.15;;;;;;;3.40;95.81;100699.05;1753866;81;21539;-66
2021/11/10 04:13:52;;;;;;;36.03;23.57;;;;;;;3.38;95.84;100696.90;1732403;81;20946;-66
2021/11/10 04:16:22;;;;;;;37.70;24.02;;;;;;;3.35;95.84;100688.29;1715020;82;26529;-65
2021/11/10 04:18:53;;;;;;;34.20;24.02;;;;;;;3.34;95.89;100689.60;1738650;81;21081;-65
2021/11/10 04:21:21;;;;;;;32.67;23.73;;;;;;;3.33;95.93;100687.45;1752681;81;20986;-66
2021/11/10 04:23:52;;;;;;;34.43;23.07;;;;;;;3.31;95.94;100684.02;1758645;80;21039;-66
2021/11/10 04:26:21;;;;;;;30.70;21.70;;;;;;;3.30;95.94;100687.44;1722816;82;21022;-66
2021/11/10 04:28:48;;;;;;;34.40;24.05;;;;;;;3.29;96.02;100680.56;1725577;81;21122;-65
2021/11/10 04:31:17;;;;;;;38.15;24.27;;;;;;;3.29;96.13;100675.41;1729612;81;21608;-65
2021/11/10 04:33:45;;;;;;;30.72;22.80;;;;;;;3.27;95.97;100679.70;1729665;81;20957;-65
2021/11/10 04:36:12;;;;;;;32.65;22.62;;;;;;;3.24;95.93;100677.13;1730675;81;20985;-65
2021/11/10 04:38:39;;;;;;;36.17;23.38;;;;;;;3.21;95.90;100677.14;1738957;81;20991;-65
2021/11/10 04:41:06;;;;;;;30.45;24.37;;;;;;;3.17;95.83;100678.02;1732055;81;21154;-65
2021/11/10 04:43:33;;;;;;;34.40;23.70;;;;;;;3.14;95.89;100667.70;1752206;81;20934;-65
2021/11/10 04:46:25;;;;;;;33.15;23.02;;;;;;;3.14;96.01;100667.70;1707360;81;21147;-66
2021/11/10 04:48:48;;;;;;;34.25;22.52;;;;;;;3.13;96.01;100667.26;1753414;81;20975;-65
2021/11/10 04:51:17;;;;;;;38.02;23.98;;;;;;;3.11;96.04;100667.72;1753842;81;20974;-65
2021/11/10 04:53:47;;;;;;;30.05;21.65;;;;;;;3.10;96.11;100671.14;1732365;81;21146;-65
2021/11/10 04:56:13;;;;;;;39.38;24.45;;;;;;;3.10;96.16;100669.84;1735067;81;21062;-66
2021/11/10 04:58:40;;;;;;;36.87;23.77;;;;;;;3.09;96.17;100661.69;1754697;81;21555;-65
2021/11/10 05:01:15;;;;;;;38.38;25.43;;;;;;;3.09;96.16;100668.14;1704994;82;21000;-65
2021/11/10 05:03:39;;;;;;;33.28;23.55;;;;;;;3.08;96.13;100659.95;1751233;81;21048;-64
2021/11/10 05:06:05;;;;;;;32.88;24.15;;;;;;;3.06;96.11;100653.95;1751461;80;22216;-64
2021/11/10 05:08:32;;;;;;;33.33;24.37;;;;;;;3.06;96.20;100659.97;1714854;82;21077;-64
2021/11/10 05:10:59;;;;;;;34.18;23.40;;;;;;;3.06;96.19;100662.98;1725473;81;20990;-65
2021/11/10 05:13:26;;;;;;;34.67;23.83;;;;;;;3.03;96.15;100663.00;1737420;81;21124;-65
2021/11/10 05:15:53;;;;;;;37.50;22.77;;;;;;;3.03;96.15;100664.28;1722520;81;21577;-66
2021/11/10 05:18:20;;;;;;;38.07;23.27;;;;;;;3.00;96.11;100661.71;1719294;82;21814;-65
2021/11/10 05:20:48;;;;;;;34.10;22.60;;;;;;;2.99;96.15;100663.41;1724675;81;21029;-65
2021/11/10 05:23:16;;;;;;;31.93;23.32;;;;;;;2.97;96.10;100654.84;1703745;83;21016;-66
2021/11/10 05:25:43;;;;;;;;;;;;;;;2.95;96.04;100658.27;1722416;82;20943;-65
2021/11/10 05:28:10;;;;;;;;;;;;;;;2.91;96.04;100647.96;1721456;83;20442;-65
2021/11/10 05:30:39;;;;;;;33.53;22.97;;;;;;;2.88;96.04;100653.09;1729128;80;21038;-65
2021/11/10 05:33:06;;;;;;;36.60;23.67;;;;;;;2.85;96.09;100645.80;1737685;81;21015;-65
2021/11/10 05:35:33;;;;;;;38.08;24.77;;;;;;;2.81;96.08;100648.82;1706724;83;20989;-65
2021/11/10 05:38:21;;;;;;;37.00;23.97;;;;;;;2.81;96.16;100648.82;1725605;81;21001;-65
2021/11/10 05:40:49;;;;;;;37.65;25.40;;;;;;;2.78;96.12;100646.25;1700863;82;21221;-66
2021/11/10 05:43:16;;;;;;;34.63;24.60;;;;;;;2.76;96.09;100653.12;1707606;82;21250;-65
2021/11/10 05:45:43;;;;;;;33.02;23.90;;;;;;;2.73;96.04;100654.84;1710568;82;26861;-65
2021/11/10 05:48:10;;;;;;;38.33;26.35;;;;;;;2.71;96.13;100652.25;1704885;82;21034;-65
2021/11/10 05:50:37;;;;;;;41.10;25.05;;;;;;;2.69;96.08;100650.13;1706647;82;20993;-65
2021/11/10 05:53:04;;;;;;;38.95;25.60;;;;;;;2.67;96.10;100650.55;1667355;82;21096;-65
2021/11/10 05:55:30;;;;;;;35.68;24.65;;;;;;;2.64;96.09;100641.53;1705001;82;21925;-65
2021/11/10 05:57:57;;;;;;;35.78;25.30;;;;;;;2.62;96.12;100639.38;1707262;82;20969;-65
2021/11/10 06:00:24;;;;;;;42.20;29.45;;;;;;;2.61;96.12;100637.66;1707116;82;21113;-65
2021/11/10 06:03:12;;;;;;;45.33;29.32;;;;;;;2.58;96.09;100644.11;1706993;81;21582;-65
2021/11/10 06:05:42;;;;;;;45.80;29.15;;;;;;;2.57;96.12;100641.08;1751550;80;21010;-65
2021/11/10 06:08:08;;;;;;;41.48;27.50;;;;;;;2.57;96.25;100641.08;1752090;80;21251;-65
2021/11/10 06:10:35;;;;;;;40.92;28.07;;;;;;;2.56;96.27;100636.80;1745438;80;21041;-65
2021/11/10 06:13:03;;;;;;;44.80;28.40;;;;;;;2.57;96.29;100638.50;1749657;80;21031;-65
2021/11/10 06:15:29;;;;;;;42.13;28.87;;;;;;;2.58;96.33;100637.67;1704576;82;21076;-65
2021/11/10 06:17:58;;;;;;;44.67;30.85;;;;;;;2.59;96.37;100631.64;1712890;82;21006;-65
2021/11/10 06:20:24;;;;;;;43.58;28.65;;;;;;;2.62;96.38;100634.22;1683248;83;21499;-65
2021/11/10 06:23:13;;;;;;;45.83;29.37;;;;;;;2.67;96.42;100633.78;1745919;80;21111;-67
2021/11/10 06:31:33;;;;;;;42.85;26.48;;;;;;;2.86;96.20;100636.78;1691490;82;21071;-69
2021/11/10 06:34:00;;;;;;;;;;;;;;;2.90;96.09;100628.16;1710887;82;20997;-65
2021/11/10 06:36:32;;;;;;;39.83;26.05;;;;;;;2.95;96.09;100629.46;1709292;82;20155;-67
2021/11/10 06:38:56;;;;;;;40.08;26.52;;;;;;;3.01;96.23;100628.16;1704927;82;21034;-65
2021/11/10 06:41:22;;;;;;;42.00;27.17;;;;;;;3.07;96.12;100629.86;1708911;82;21101;-67
2021/11/10 06:43:50;;;;;;;41.77;27.62;;;;;;;3.08;96.05;100627.30;1710084;82;21064;-67
2021/11/10 06:46:18;;;;;;;42.73;27.42;;;;;;;3.13;96.10;100624.68;1731736;81;22288;-68
2021/11/10 06:48:45;;;;;;;;;;;;;;;3.19;96.24;100622.08;1732750;81;21077;-67
2021/11/10 06:51:14;;;;;;;38.15;25.17;;;;;;;3.27;96.31;100625.50;1736818;81;20493;-66
2021/11/10 06:53:51;;;;;;;38.83;25.35;;;;;;;3.30;96.25;100629.36;1717210;81;21842;-67
2021/11/10 06:56:27;;;;;;;37.10;24.47;;;;;;;3.38;96.35;100624.18;1733429;80;21023;-68
2021/11/10 06:59:05;;;;;;;36.23;23.10;;;;;;;3.45;96.31;100627.62;1730124;81;21074;-68
2021/11/10 07:01:41;;;;;;;38.98;24.47;;;;;;;3.51;96.32;100623.72;1716185;81;20921;-69
2021/11/10 07:04:16;;;;;;;38.53;24.60;;;;;;;3.57;96.25;100621.10;1732928;81;21285;-66
2021/11/10 07:06:49;;;;;;;36.15;24.20;;;;;;;3.63;96.27;100617.19;1727072;81;20994;-66
2021/11/10 07:09:19;;;;;;;42.38;24.82;;;;;;;3.66;96.15;100612.02;1713872;81;21036;-66
2021/11/10 07:11:49;;;;;;;34.55;23.12;;;;;;;3.72;96.24;100610.69;1714597;81;21101;-68
2021/11/10 07:14:26;;;;;;;32.38;22.48;;;;;;;3.80;96.22;100608.92;1740804;81;21021;-68
2021/11/10 07:17:03;;;;;;;31.12;21.48;;;;;;;3.85;96.14;100606.77;1732583;80;21581;-68
2021/11/10 07:19:34;;;;;;;32.90;21.00;;;;;;;3.89;96.13;100591.66;1731705;81;21622;-69
2021/11/10 07:22:12;;;;;;;32.70;21.80;;;;;;;3.95;96.12;100600.66;1737547;81;21075;-66
2021/11/10 07:25:05;;;;;;;32.28;22.52;;;;;;;4.00;96.17;100588.12;1714316;81;21403;-67
2021/11/10 07:27:35;;;;;;;31.27;21.65;;;;;;;4.12;96.40;100592.82;1745768;80;21598;-66
2021/11/10 07:30:09;;;;;;;33.08;21.95;;;;;;;4.18;96.20;100592.33;1736035;80;20989;-65
2021/11/10 07:32:42;;;;;;;34.35;21.40;;;;;;;4.23;96.19;100590.58;1715258;82;21039;-66
2021/11/10 07:35:12;;;;;;;31.42;20.97;;;;;;;4.29;96.16;100593.99;1692198;82;21084;-67
2021/11/10 07:37:44;;;;;;;31.42;21.82;;;;;;;4.39;96.27;100598.20;1704212;81;21154;-65
2021/11/10 07:40:14;;;;;;;30.65;20.82;;;;;;;4.46;96.14;100592.13;1742227;80;20917;-66
2021/11/10 07:42:42;;;;;;;33.00;22.22;;;;;;;4.48;96.12;100589.95;1734381;81;20992;-66
2021/11/10 07:45:35;;;;;;;29.05;20.10;;;;;;;4.56;96.18;100596.33;1711963;81;21047;-67
2021/11/10 07:48:06;;;;;;;32.80;20.43;;;;;;;4.67;96.31;100597.09;1725190;81;21566;-66
2021/11/10 07:50:35;;;;;;;31.02;21.37;;;;;;;4.81;96.38;100583.17;1691497;83;21109;-67
2021/11/10 07:53:03;;;;;;;27.62;20.55;;;;;;;4.94;96.44;100582.19;1690170;83;21091;-67
2021/11/10 07:55:30;;;;;;;27.55;19.40;;;;;;;5.09;96.61;100585.88;1718323;82;21665;-66
2021/11/10 07:57:57;;;;;;;27.33;19.97;;;;;;;5.25;96.57;100584.44;1715318;80;20960;-65
2021/11/10 08:00:24;;;;;;;30.97;19.95;;;;;;;5.27;96.13;100577.52;1666015;83;21411;-68
2021/11/10 08:02:53;;;;;;;28.12;19.00;;;;;;;5.36;96.13;100579.98;1691589;83;21204;-70
2021/11/10 08:05:21;;;;;;;27.13;19.50;;;;;;;5.44;96.21;100581.19;1692369;83;21055;-67
2021/11/10 08:07:48;;;;;;;26.73;18.25;;;;;;;5.49;95.89;100571.19;1695314;83;21008;-67
2021/11/10 08:10:16;;;;;;;25.17;18.42;;;;;;;5.54;95.98;100574.55;1717073;82;21109;-67
2021/11/10 08:12:47;;;;;;;25.85;18.12;;;;;;;5.57;95.76;100566.77;1713150;82;21639;-68
2021/11/10 08:15:16;;;;;;;28.05;19.85;;;;;;;5.58;95.54;100571.06;1689928;82;21356;-68
2021/11/10 08:17:44;;;;;;;27.45;19.30;;;;;;;5.65;95.83;100573.56;1690686;82;21434;-67
2021/11/10 08:20:16;;;;;;;23.90;18.85;;;;;;;5.74;95.87;100569.13;1700871;82;21055;-67
2021/11/10 08:22:45;;;;;;;27.27;18.98;;;;;;;5.77;95.55;100570.80;1710458;82;21004;-68
2021/11/10 08:25:16;;;;;;;25.57;18.95;;;;;;;5.78;95.59;100568.20;1714985;82;22043;-69
2021/11/10 08:27:45;;;;;;;27.30;19.25;;;;;;;5.82;95.50;100570.30;1720931;82;21927;-68
2021/11/10 08:30:17;;;;;;;25.43;18.10;;;;;;;5.85;95.47;100566.36;1712481;82;21162;-68
2021/11/10 08:32:46;;;;;;;23.75;17.30;;;;;;;5.90;95.49;100564.56;1711276;80;20997;-68
2021/11/10 08:35:13;;;;;;;25.05;17.50;;;;;;;5.90;95.21;100558.09;1686413;82;22343;-68
2021/11/10 08:37:40;;;;;;;26.65;16.77;;;;;;;5.88;95.04;100561.16;1715297;82;20972;-69
2021/11/10 08:40:10;;;;;;;26.80;17.85;;;;;;;5.91;95.34;100563.70;1715000;82;21078;-67
2021/11/10 08:42:38;;;;;;;21.85;16.85;;;;;;;5.97;95.35;100571.42;1714798;82;20956;-68
2021/11/10 08:45:13;;;;;;;21.23;16.30;;;;;;;6.02;95.37;100578.70;1718802;82;21012;-68
2021/11/10 08:47:44;;;;;;;22.30;16.07;;;;;;;6.09;95.42;100576.00;1662571;83;21021;-68
2021/11/10 08:50:15;;;;;;;28.35;18.07;;;;;;;6.12;95.41;100574.66;1722000;81;21626;-68
2021/11/10 08:52:44;;;;;;;24.32;16.85;;;;;;;6.20;95.45;100573.66;1722443;81;21967;-67
2021/11/10 08:55:15;;;;;;;25.70;17.17;;;;;;;6.32;95.60;100575.64;1689255;83;21527;-68
2021/11/10 08:57:43;;;;;;;17.20;13.03;;;;;;;6.39;95.45;100579.41;1697337;83;21039;-67
2021/11/10 09:00:15;;;;;;;26.52;18.10;;;;;;;6.44;95.13;100574.12;1665689;85;21015;-69
2021/11/10 09:02:42;;;;;;;29.32;18.57;;;;;;;6.47;95.04;100574.95;1723494;82;21614;-68
2021/11/10 09:05:10;;;;;;;17.23;13.80;;;;;;;6.48;95.02;100574.06;1717753;82;21471;-68
2021/11/10 09:07:38;;;;;;;18.15;14.10;;;;;;;6.58;95.13;100581.68;1721485;82;21028;-69
2021/11/10 09:10:10;;;;;;;;;;;;;;;6.60;94.95;100582.52;1702057;82;21048;-69
2021/11/10 09:12:39;;;;;;;24.30;16.42;;;;;;;6.66;94.95;100575.47;1718122;81;20865;-69
2021/11/10 09:15:10;;;;;;;19.95;15.15;;;;;;;6.73;94.98;100573.20;1718304;81;21007;-69
2021/11/10 09:17:39;;;;;;;25.55;17.12;;;;;;;6.74;94.52;100575.34;1712641;81;21274;-67
2021/11/10 09:20:14;;;;;;;25.23;17.32;;;;;;;6.68;94.21;100567.67;1690421;82;20993;-68
2021/11/10 09:22:42;;;;;;;17.50;14.30;;;;;;;6.65;94.26;100572.92;1694540;81;21076;-69
2021/11/10 09:25:12;;;;;;;20.08;13.90;;;;;;;6.68;94.36;100571.56;1718477;82;21894;-68
2021/11/10 09:27:39;;;;;;;22.32;16.17;;;;;;;6.78;94.70;100569.23;1718125;82;21017;-69
2021/11/10 09:30:11;;;;;;;20.15;14.13;;;;;;;6.85;94.66;100562.17;1718505;82;21523;-69
2021/11/10 09:32:40;;;;;;;18.80;14.83;;;;;;;6.90;94.57;100561.66;1718040;82;20952;-69
2021/11/10 09:35:10;;;;;;;22.52;13.60;;;;;;;7.00;94.89;100561.02;1718504;82;21591;-69
2021/11/10 09:37:41;;;;;;;17.35;13.30;;;;;;;7.10;94.94;100551.73;1702846;82;21628;-70
2021/11/10 09:40:13;;;;;;;24.63;17.45;;;;;;;7.15;94.47;100550.34;1714164;82;21261;-68
2021/11/10 09:42:48;;;;;;;22.32;15.65;;;;;;;7.16;94.16;100552.05;1718608;82;21657;-69
2021/11/10 09:45:21;;;;;;;18.30;14.43;;;;;;;7.14;93.99;100544.72;1719201;81;21096;-68
2021/11/10 09:47:48;;;;;;;17.87;14.47;;;;;;;7.15;94.00;100542.56;1742130;80;20980;-68
2021/11/10 09:50:18;;;;;;;;;;;;;;;7.12;93.71;100542.63;1725306;79;20945;-68
2021/11/10 09:52:46;;;;;;;24.47;15.95;;;;;;;7.09;93.49;100540.09;1748435;80;20162;-67
2021/11/10 09:55:18;;;;;;;22.85;15.95;;;;;;;7.08;93.67;100540.95;1747546;80;21061;-68
2021/11/10 09:57:47;;;;;;;19.85;14.47;;;;;;;7.09;93.50;100545.28;1747673;80;21064;-69
2021/11/10 10:00:18;;;;;;;18.62;15.15;;;;;;;7.05;93.47;100546.21;1748801;80;21614;-68
2021/11/10 10:02:46;;;;;;;21.07;16.27;;;;;;;7.07;93.51;100547.05;1749459;80;21009;-69
2021/11/10 10:05:16;;;;;;;22.98;16.15;;;;;;;7.06;93.61;100541.45;1746794;80;21018;-70
2021/11/10 10:07:45;;;;;;;18.92;15.83;;;;;;;7.12;93.62;100545.22;1715960;82;21572;-68
2021/11/10 10:10:12;;;;;;;27.42;19.37;;;;;;;7.18;93.77;100542.50;1687365;83;21066;-67
2021/11/10 10:12:41;;;;;;;21.17;17.40;;;;;;;7.17;93.44;100545.99;1717591;82;21106;-68
2021/11/10 10:15:11;;;;;;;24.25;17.48;;;;;;;7.20;93.49;100538.13;1687849;82;21000;-68
2021/11/10 10:17:42;;;;;;;22.77;17.23;;;;;;;7.22;93.38;100538.94;1692739;82;21140;-69
2021/11/10 10:20:29;;;;;;;23.80;16.60;;;;;;;7.24;93.54;100544.11;1745146;80;21062;-68
2021/11/10 10:23:00;;;;;;;20.30;16.42;;;;;;;7.24;93.35;100537.17;1746093;80;20960;-68
2021/11/10 10:25:47;;;;;;;22.65;16.10;;;;;;;7.28;93.44;100538.84;1746982;79;21614;-69
2021/11/10 10:28:25;;;;;;;25.05;16.52;;;;;;;7.31;93.37;100549.16;1747752;80;21068;-71
2021/11/10 10:31:00;;;;;;;31.00;17.37;;;;;;;7.29;93.02;100544.88;1752445;80;21110;-70
2021/11/10 10:33:35;;;;;;;21.37;16.25;;;;;;;7.29;93.19;100541.83;1743197;79;21678;-71
2021/11/10 10:36:18;;;;;;;22.45;16.93;;;;;;;7.32;93.13;100544.36;1746750;80;21062;-70
2021/11/10 10:39:03;;;;;;;20.52;16.50;;;;;;;7.27;92.84;100537.10;1746790;80;21044;-71
2021/11/10 10:41:51;;;;;;;22.62;16.90;;;;;;;7.23;92.90;100534.17;1708113;81;21087;-69
2021/11/10 10:44:27;;;;;;;24.20;17.07;;;;;;;7.21;92.74;100525.55;1660814;83;21042;-69
2021/11/10 10:47:04;;;;;;;23.85;17.80;;;;;;;7.17;92.81;100518.72;1612694;86;22299;-70
2021/11/10 10:49:43;;;;;;;24.72;17.50;;;;;;;7.21;93.06;100515.61;1628494;86;21035;-70
2021/11/10 10:52:18;;;;;;;22.67;16.93;;;;;;;7.20;92.77;100506.97;1637575;86;21076;-67
2021/11/10 10:54:51;;;;;;;25.27;17.98;;;;;;;7.17;92.57;100501.84;1610919;86;21223;-68
2021/11/10 10:57:22;;;;;;;23.45;17.48;;;;;;;7.17;92.72;100496.64;1639896;86;21012;-67
2021/11/10 10:59:56;;;;;;;28.40;17.67;;;;;;;7.17;92.56;100488.85;1688145;83;21051;-68
2021/11/10 11:02:28;;;;;;;26.07;16.12;;;;;;;7.15;92.50;100486.27;1652612;85;21044;-68
2021/11/10 11:04:57;;;;;;;23.32;17.67;;;;;;;7.18;92.60;100480.16;1634757;85;21570;-66
2021/11/10 11:07:29;;;;;;;24.20;17.07;;;;;;;7.20;92.69;100483.59;1635002;85;21067;-66
2021/11/10 11:09:57;;;;;;;20.90;16.70;;;;;;;7.27;92.76;100478.66;1654617;85;21174;-67
2021/11/10 11:15:06;;;;;;;27.75;17.50;;;;;;;7.36;92.65;100493.19;1652447;85;20171;-68
2021/11/10 11:17:41;;;;;;;24.12;16.73;;;;;;;7.36;92.52;100496.63;1658910;85;21014;-68
2021/11/10 11:20:22;;;;;;;24.55;16.85;;;;;;;7.32;92.22;100490.26;1628312;86;21131;-68
2021/11/10 11:22:55;;;;;;;23.42;15.95;;;;;;;7.35;92.57;100485.84;1684441;83;21013;-68
2021/11/10 11:25:51;;;;;;;20.85;15.50;;;;;;;7.40;92.52;100488.34;1654867;85;21216;-68
2021/11/10 11:28:20;;;;;;;21.97;14.73;;;;;;;7.44;92.40;100490.43;1806330;78;21301;-70
2021/11/10 11:30:56;;;;;;;20.92;14.95;;;;;;;7.50;92.22;100492.88;1803102;77;21047;-67
2021/11/10 11:33:33;;;;;;;20.30;14.43;;;;;;;7.55;92.36;100494.94;1786318;78;21496;-69
2021/11/10 11:36:00;;;;;;;18.85;14.45;;;;;;;7.58;92.02;100489.67;1782764;78;21062;-67
2021/11/10 11:38:32;;;;;;;19.32;14.07;;;;;;;7.60;91.87;100487.91;1795619;78;21066;-67
2021/11/10 11:41:02;;;;;;;23.05;15.45;;;;;;;7.71;92.19;100487.66;1764611;79;21062;-67
2021/11/10 11:43:31;;;;;;;25.55;14.58;;;;;;;7.82;92.21;100468.77;1775180;78;21076;-68